sensor_id;sensor_type;location;lat;lon;timestamp;pressure;altitude;pressure_sealevel;temperature;humidity
58473;BME280;44775;51.564;5.460;2023-04-08T00:02:11;101954.34;;;6.88;100.00
58473;BME280;44775;51.564;5.460;2023-04-08T00:04:36;101951.59;;;6.90;100.00
58473;BME280;44775;51.564;5.460;2023-04-08T00:07:02;101947.13;;;6.90;100.00
58473;BME280;44775;51.564;5.460;2023-04-08T00:09:27;101947.84;;;6.92;100.00
58473;BME280;44775;51.564;5.460;2023-04-08T00:11:52;101957.50;;;6.93;100.00
58473;BME280;44775;51.564;5.460;2023-04-08T00:14:17;101954.72;;;6.95;100.00
58473;BME280;44775;51.564;5.460;2023-04-08T00:16:43;101951.22;;;6.94;100.00
58473;BME280;44775;51.564;5.460;2023-04-08T00:19:08;101952.06;;;6.95;100.00
58473;BME280;44775;51.564;5.460;2023-04-08T00:21:33;101940.72;;;6.93;100.00
58473;BME280;44775;51.564;5.460;2023-04-08T00:23:59;101947.50;;;6.97;100.00
58473;BME280;44775;51.564;5.460;2023-04-08T00:26:24;101949.16;;;6.98;100.00
58473;BME280;44775;51.564;5.460;2023-04-08T00:28:50;101947.34;;;6.98;100.00
58473;BME280;44775;51.564;5.460;2023-04-08T00:31:15;101950.88;;;6.99;100.00
58473;BME280;44775;51.564;5.460;2023-04-08T00:33:41;101955.22;;;7.00;100.00
58473;BME280;44775;51.564;5.460;2023-04-08T00:36:06;101947.97;;;7.02;100.00
58473;BME280;44775;51.564;5.460;2023-04-08T00:38:32;101948.09;;;7.00;100.00
58473;BME280;44775;51.564;5.460;2023-04-08T00:40:57;101948.69;;;7.04;100.00
58473;BME280;44775;51.564;5.460;2023-04-08T00:43:22;101947.72;;;7.05;100.00
58473;BME280;44775;51.564;5.460;2023-04-08T00:45:48;101954.75;;;7.06;100.00
58473;BME280;44775;51.564;5.460;2023-04-08T00:48:13;101947.72;;;7.05;100.00
58473;BME280;44775;51.564;5.460;2023-04-08T00:50:39;101950.16;;;7.08;100.00
58473;BME280;44775;51.564;5.460;2023-04-08T00:53:04;101965.88;;;7.11;100.00
58473;BME280;44775;51.564;5.460;2023-04-08T00:55:30;101953.56;;;7.10;100.00
58473;BME280;44775;51.564;5.460;2023-04-08T00:57:56;101958.88;;;7.10;100.00
58473;BME280;44775;51.564;5.460;2023-04-08T01:00:22;101957.19;;;7.09;100.00
58473;BME280;44775;51.564;5.460;2023-04-08T01:05:26;101966.59;;;7.13;100.00
58473;BME280;44775;51.564;5.460;2023-04-08T01:07:53;101960.78;;;7.08;100.00
58473;BME280;44775;51.564;5.460;2023-04-08T01:10:22;101960.78;;;7.08;100.00
58473;BME280;44775;51.564;5.460;2023-04-08T01:12:58;101965.41;;;7.06;100.00
58473;BME280;44775;51.564;5.460;2023-04-08T01:15:27;101963.69;;;7.05;100.00
58473;BME280;44775;51.564;5.460;2023-04-08T01:17:54;101962.97;;;7.03;100.00
58473;BME280;44775;51.564;5.460;2023-04-08T01:20:22;101959.56;;;7.01;100.00
58473;BME280;44775;51.564;5.460;2023-04-08T01:25:48;101959.56;;;7.01;100.00
58473;BME280;44775;51.564;5.460;2023-04-08T01:28:15;101955.47;;;6.97;100.00
58473;BME280;44775;51.564;5.460;2023-04-08T01:30:42;101966.09;;;6.97;100.00
58473;BME280;44775;51.564;5.460;2023-04-08T01:33:11;101961.63;;;6.97;100.00
58473;BME280;44775;51.564;5.460;2023-04-08T01:35:37;101959.19;;;6.94;100.00
58473;BME280;44775;51.564;5.460;2023-04-08T01:38:06;101967.28;;;6.93;100.00
58473;BME280;44775;51.564;5.460;2023-04-08T01:40:33;101974.28;;;6.94;100.00
58473;BME280;44775;51.564;5.460;2023-04-08T01:43:00;101968.97;;;6.94;100.00
58473;BME280;44775;51.564;5.460;2023-04-08T01:45:29;101970.06;;;6.91;100.00
58473;BME280;44775;51.564;5.460;2023-04-08T01:47:55;101968.38;;;6.90;100.00
58473;BME280;44775;51.564;5.460;2023-04-08T01:50:21;101973.44;;;6.93;100.00
58473;BME280;44775;51.564;5.460;2023-04-08T01:52:47;101975.38;;;6.91;100.00
58473;BME280;44775;51.564;5.460;2023-04-08T01:55:13;101976.22;;;6.92;100.00
58473;BME280;44775;51.564;5.460;2023-04-08T01:57:40;101978.25;;;6.88;100.00
58473;BME280;44775;51.564;5.460;2023-04-08T02:00:09;101977.09;;;6.92;100.00
58473;BME280;44775;51.564;5.460;2023-04-08T02:02:37;101968.50;;;6.89;100.00
58473;BME280;44775;51.564;5.460;2023-04-08T02:05:03;101975.38;;;6.91;100.00
58473;BME280;44775;51.564;5.460;2023-04-08T02:07:28;101986.75;;;6.93;100.00
58473;BME280;44775;51.564;5.460;2023-04-08T02:09:55;101973.44;;;6.93;100.00
58473;BME280;44775;51.564;5.460;2023-04-08T02:12:20;101974.53;;;6.91;100.00
58473;BME280;44775;51.564;5.460;2023-04-08T02:14:46;101979.84;;;6.91;100.00
58473;BME280;44775;51.564;5.460;2023-04-08T02:17:24;101974.44;;;6.92;100.00
58473;BME280;44775;51.564;5.460;2023-04-08T02:20:10;101977.94;;;6.93;100.00
58473;BME280;44775;51.564;5.460;2023-04-08T02:22:49;101980.44;;;6.94;100.00
58473;BME280;44775;51.564;5.460;2023-04-08T02:25:21;101979.59;;;6.94;100.00
58473;BME280;44775;51.564;5.460;2023-04-08T02:27:47;101977.78;;;6.94;100.00
58473;BME280;44775;51.564;5.460;2023-04-08T02:30:14;101987.34;;;6.97;100.00
58473;BME280;44775;51.564;5.460;2023-04-08T02:32:40;101989.16;;;6.96;100.00
58473;BME280;44775;51.564;5.460;2023-04-08T02:35:08;101981.06;;;6.98;100.00
58473;BME280;44775;51.564;5.460;2023-04-08T02:37:35;101989.03;;;6.98;100.00
58473;BME280;44775;51.564;5.460;2023-04-08T02:40:01;101982.88;;;6.97;100.00
58473;BME280;44775;51.564;5.460;2023-04-08T02:42:26;101984.69;;;6.97;100.00
58473;BME280;44775;51.564;5.460;2023-04-08T02:44:51;101989.78;;;7.00;100.00
58473;BME280;44775;51.564;5.460;2023-04-08T02:47:17;101996.91;;;6.99;100.00
58473;BME280;44775;51.564;5.460;2023-04-08T02:49:42;101990.75;;;6.99;100.00
58473;BME280;44775;51.564;5.460;2023-04-08T02:52:07;101996.06;;;6.99;100.00
58473;BME280;44775;51.564;5.460;2023-04-08T02:54:33;101991.69;;;6.98;100.00
58473;BME280;44775;51.564;5.460;2023-04-08T02:56:58;101988.81;;;7.01;100.00
58473;BME280;44775;51.564;5.460;2023-04-08T02:59:23;101995.94;;;7.00;100.00
58473;BME280;44775;51.564;5.460;2023-04-08T03:01:49;102001.25;;;7.00;100.00
58473;BME280;44775;51.564;5.460;2023-04-08T03:04:14;101996.16;;;6.97;100.00
58473;BME280;44775;51.564;5.460;2023-04-08T03:06:39;101995.19;;;6.98;100.00
58473;BME280;44775;51.564;5.460;2023-04-08T03:09:05;101990.97;;;6.96;100.00
58473;BME280;44775;51.564;5.460;2023-04-08T03:11:30;101996.41;;;6.94;100.00
58473;BME280;44775;51.564;5.460;2023-04-08T03:13:56;101998.56;;;6.89;100.00
58473;BME280;44775;51.564;5.460;2023-04-08T03:16:21;102003.28;;;6.85;100.00
58473;BME280;44775;51.564;5.460;2023-04-08T03:18:48;101999.88;;;6.83;100.00
58473;BME280;44775;51.564;5.460;2023-04-08T03:21:14;101995.84;;;6.78;100.00
58473;BME280;44775;51.564;5.460;2023-04-08T03:23:39;101994.53;;;6.72;100.00
58473;BME280;44775;51.564;5.460;2023-04-08T03:26:05;101997.66;;;6.66;100.00
58473;BME280;44775;51.564;5.460;2023-04-08T03:28:30;101989.38;;;6.58;100.00
58473;BME280;44775;51.564;5.460;2023-04-08T03:30:55;101993.00;;;6.57;100.00
58473;BME280;44775;51.564;5.460;2023-04-08T03:33:20;101996.25;;;6.49;100.00
58473;BME280;44775;51.564;5.460;2023-04-08T03:35:46;101995.22;;;6.39;100.00
58473;BME280;44775;51.564;5.460;2023-04-08T03:38:11;101989.53;;;6.32;100.00
58473;BME280;44775;51.564;5.460;2023-04-08T03:40:36;101992.53;;;6.28;100.00
58473;BME280;44775;51.564;5.460;2023-04-08T03:43:01;101994.66;;;6.23;100.00
58473;BME280;44775;51.564;5.460;2023-04-08T03:45:27;101992.34;;;6.18;100.00
58473;BME280;44775;51.564;5.460;2023-04-08T03:47:52;101997.03;;;6.14;100.00
58473;BME280;44775;51.564;5.460;2023-04-08T03:50:17;101996.16;;;6.14;100.00
58473;BME280;44775;51.564;5.460;2023-04-08T03:52:43;101992.19;;;6.08;100.00
58473;BME280;44775;51.564;5.460;2023-04-08T03:55:08;102009.78;;;6.09;100.00
58473;BME280;44775;51.564;5.460;2023-04-08T03:57:33;102004.81;;;6.05;100.00
58473;BME280;44775;51.564;5.460;2023-04-08T03:59:59;102008.09;;;6.08;100.00
58473;BME280;44775;51.564;5.460;2023-04-08T04:02:24;102007.97;;;6.10;100.00
58473;BME280;44775;51.564;5.460;2023-04-08T04:04:49;102014.75;;;6.14;100.00
58473;BME280;44775;51.564;5.460;2023-04-08T04:07:15;102005.72;;;6.17;100.00
58473;BME280;44775;51.564;5.460;2023-04-08T04:09:40;102004.44;;;6.22;100.00
58473;BME280;44775;51.564;5.460;2023-04-08T04:12:05;102006.13;;;6.23;100.00
58473;BME280;44775;51.564;5.460;2023-04-08T04:14:31;102011.44;;;6.23;100.00
58473;BME280;44775;51.564;5.460;2023-04-08T04:16:56;102008.56;;;6.26;100.00
58473;BME280;44775;51.564;5.460;2023-04-08T04:19:21;102011.13;;;6.28;100.00
58473;BME280;44775;51.564;5.460;2023-04-08T04:21:46;102016.06;;;6.32;100.00
58473;BME280;44775;51.564;5.460;2023-04-08T04:24:12;102019.22;;;6.37;100.00
58473;BME280;44775;51.564;5.460;2023-04-08T04:26:39;102024.66;;;6.36;100.00
58473;BME280;44775;51.564;5.460;2023-04-08T04:29:05;102022.84;;;6.36;100.00
58473;BME280;44775;51.564;5.460;2023-04-08T04:31:31;102036.88;;;6.38;100.00
58473;BME280;44775;51.564;5.460;2023-04-08T04:33:56;102027.19;;;6.37;100.00
58473;BME280;44775;51.564;5.460;2023-04-08T04:36:21;102037.50;;;6.42;100.00
58473;BME280;44775;51.564;5.460;2023-04-08T04:38:48;102031.34;;;6.42;100.00
58473;BME280;44775;51.564;5.460;2023-04-08T04:41:14;102038.44;;;6.41;100.00
58473;BME280;44775;51.564;5.460;2023-04-08T04:43:39;102039.41;;;6.40;100.00
58473;BME280;44775;51.564;5.460;2023-04-08T04:46:05;102045.34;;;6.44;100.00
58473;BME280;44775;51.564;5.460;2023-04-08T04:48:33;102048.75;;;6.46;100.00
58473;BME280;44775;51.564;5.460;2023-04-08T04:50:59;102049.34;;;6.49;100.00
58473;BME280;44775;51.564;5.460;2023-04-08T04:53:25;102048.91;;;6.55;100.00
58473;BME280;44775;51.564;5.460;2023-04-08T04:55:51;102056.75;;;6.57;100.00
58473;BME280;44775;51.564;5.460;2023-04-08T04:58:16;102051.34;;;6.58;100.00
58473;BME280;44775;51.564;5.460;2023-04-08T05:00:42;102055.56;;;6.61;100.00
58473;BME280;44775;51.564;5.460;2023-04-08T05:03:08;102058.13;;;6.62;100.00
58473;BME280;44775;51.564;5.460;2023-04-08T05:05:33;102064.16;;;6.65;100.00
58473;BME280;44775;51.564;5.460;2023-04-08T05:07:58;102065.50;;;6.70;100.00
58473;BME280;44775;51.564;5.460;2023-04-08T05:10:23;102073.03;;;6.76;100.00
58473;BME280;44775;51.564;5.460;2023-04-08T05:12:49;102071.75;;;6.82;100.00
58473;BME280;44775;51.564;5.460;2023-04-08T05:15:14;102071.34;;;6.75;100.00
58473;BME280;44775;51.564;5.460;2023-04-08T05:17:40;102079.41;;;6.74;100.00
58473;BME280;44775;51.564;5.460;2023-04-08T05:20:05;102082.91;;;6.74;100.00
58473;BME280;44775;51.564;5.460;2023-04-08T05:22:31;102079.63;;;6.71;100.00
58473;BME280;44775;51.564;5.460;2023-04-08T05:24:56;102084.84;;;6.72;100.00
58473;BME280;44775;51.564;5.460;2023-04-08T05:27:21;102082.19;;;6.72;100.00
58473;BME280;44775;51.564;5.460;2023-04-08T05:29:47;102084.94;;;6.71;100.00
58473;BME280;44775;51.564;5.460;2023-04-08T05:32:12;102078.31;;;6.65;100.00
58473;BME280;44775;51.564;5.460;2023-04-08T05:34:38;102080.84;;;6.67;100.00
58473;BME280;44775;51.564;5.460;2023-04-08T05:37:03;102088.66;;;6.68;100.00
58473;BME280;44775;51.564;5.460;2023-04-08T05:39:28;102088.44;;;6.71;100.00
58473;BME280;44775;51.564;5.460;2023-04-08T05:41:53;102090.03;;;6.74;100.00
58473;BME280;44775;51.564;5.460;2023-04-08T05:44:19;102090.66;;;6.77;100.00
58473;BME280;44775;51.564;5.460;2023-04-08T05:46:44;102087.28;;;6.75;100.00
58473;BME280;44775;51.564;5.460;2023-04-08T05:49:10;102093.22;;;6.79;100.00
58473;BME280;44775;51.564;5.460;2023-04-08T05:51:36;102096.50;;;6.82;100.00
58473;BME280;44775;51.564;5.460;2023-04-08T05:54:02;102095.75;;;6.80;100.00
58473;BME280;44775;51.564;5.460;2023-04-08T05:56:28;102091.28;;;6.81;100.00
58473;BME280;44775;51.564;5.460;2023-04-08T05:58:53;102101.06;;;6.80;100.00
58473;BME280;44775;51.564;5.460;2023-04-08T06:01:18;102089.47;;;6.81;100.00
58473;BME280;44775;51.564;5.460;2023-04-08T06:03:43;102105.34;;;6.94;100.00
58473;BME280;44775;51.564;5.460;2023-04-08T06:06:09;102114.78;;;6.98;100.00
58473;BME280;44775;51.564;5.460;2023-04-08T06:08:38;102110.38;;;7.10;100.00
58473;BME280;44775;51.564;5.460;2023-04-08T06:11:03;102114.09;;;7.07;100.00
58473;BME280;44775;51.564;5.460;2023-04-08T06:13:29;102113.03;;;7.10;100.00
58473;BME280;44775;51.564;5.460;2023-04-08T06:15:54;102115.00;;;7.19;100.00
58473;BME280;44775;51.564;5.460;2023-04-08T06:18:20;102115.72;;;7.21;100.00
58473;BME280;44775;51.564;5.460;2023-04-08T06:20:45;102119.38;;;7.31;100.00
58473;BME280;44775;51.564;5.460;2023-04-08T06:23:10;102133.69;;;7.42;100.00
58473;BME280;44775;51.564;5.460;2023-04-08T06:25:36;102134.56;;;7.53;100.00
58473;BME280;44775;51.564;5.460;2023-04-08T06:28:02;102132.38;;;7.58;100.00
58473;BME280;44775;51.564;5.460;2023-04-08T06:30:27;102140.41;;;7.70;100.00
58473;BME280;44775;51.564;5.460;2023-04-08T06:32:52;102142.34;;;7.79;100.00
58473;BME280;44775;51.564;5.460;2023-04-08T06:35:17;102144.19;;;7.90;100.00
58473;BME280;44775;51.564;5.460;2023-04-08T06:37:43;102148.91;;;7.97;100.00
58473;BME280;44775;51.564;5.460;2023-04-08T06:40:08;102154.25;;;8.09;100.00
58473;BME280;44775;51.564;5.460;2023-04-08T06:42:34;102159.31;;;8.12;100.00
58473;BME280;44775;51.564;5.460;2023-04-08T06:45:00;102159.31;;;8.12;100.00
58473;BME280;44775;51.564;5.460;2023-04-08T06:47:25;102163.09;;;8.20;100.00
58473;BME280;44775;51.564;5.460;2023-04-08T06:49:51;102166.59;;;8.32;100.00
58473;BME280;44775;51.564;5.460;2023-04-08T06:52:16;102167.31;;;8.34;100.00
58473;BME280;44775;51.564;5.460;2023-04-08T06:54:42;102163.47;;;8.27;100.00
58473;BME280;44775;51.564;5.460;2023-04-08T06:57:07;102169.84;;;8.36;100.00
58473;BME280;44775;51.564;5.460;2023-04-08T06:59:32;102180.53;;;8.47;100.00
58473;BME280;44775;51.564;5.460;2023-04-08T07:01:58;102179.06;;;8.43;100.00
58473;BME280;44775;51.564;5.460;2023-04-08T07:04:23;102179.91;;;8.43;100.00
58473;BME280;44775;51.564;5.460;2023-04-08T07:06:48;102184.84;;;8.37;100.00
58473;BME280;44775;51.564;5.460;2023-04-08T07:09:14;102188.78;;;8.44;100.00
58473;BME280;44775;51.564;5.460;2023-04-08T07:11:39;102196.53;;;8.58;100.00
58473;BME280;44775;51.564;5.460;2023-04-08T07:14:05;102197.72;;;8.65;100.00
58473;BME280;44775;51.564;5.460;2023-04-08T07:16:30;102189.25;;;8.71;100.00
58473;BME280;44775;51.564;5.460;2023-04-08T07:18:55;102201.09;;;8.79;100.00
58473;BME280;44775;51.564;5.460;2023-04-08T07:21:21;102194.44;;;8.73;100.00
58473;BME280;44775;51.564;5.460;2023-04-08T07:23:46;102201.19;;;8.88;100.00
58473;BME280;44775;51.564;5.460;2023-04-08T07:26:11;102211.25;;;8.73;100.00
58473;BME280;44775;51.564;5.460;2023-04-08T07:28:37;102217.34;;;8.75;100.00
58473;BME280;44775;51.564;5.460;2023-04-08T07:31:12;102218.53;;;8.60;100.00
58473;BME280;44775;51.564;5.460;2023-04-08T07:33:38;102211.53;;;8.59;100.00
58473;BME280;44775;51.564;5.460;2023-04-08T07:36:04;102216.63;;;8.62;100.00
58473;BME280;44775;51.564;5.460;2023-04-08T07:38:29;102215.41;;;8.78;100.00
58473;BME280;44775;51.564;5.460;2023-04-08T07:40:55;102221.44;;;8.80;100.00
58473;BME280;44775;51.564;5.460;2023-04-08T07:43:20;102222.38;;;8.90;100.00
58473;BME280;44775;51.564;5.460;2023-04-08T07:45:45;102225.53;;;8.95;100.00
58473;BME280;44775;51.564;5.460;2023-04-08T07:48:11;102226.16;;;8.98;100.00
58473;BME280;44775;51.564;5.460;2023-04-08T07:50:36;102230.81;;;9.17;100.00
58473;BME280;44775;51.564;5.460;2023-04-08T07:53:02;102240.34;;;9.31;100.00
58473;BME280;44775;51.564;5.460;2023-04-08T07:55:27;102233.06;;;9.33;100.00
58473;BME280;44775;51.564;5.460;2023-04-08T07:57:57;102229.06;;;9.39;100.00
58473;BME280;44775;51.564;5.460;2023-04-08T08:00:22;102229.13;;;9.16;100.00
58473;BME280;44775;51.564;5.460;2023-04-08T08:02:47;102233.72;;;9.14;100.00
58473;BME280;44775;51.564;5.460;2023-04-08T08:05:13;102242.22;;;9.19;100.00
58473;BME280;44775;51.564;5.460;2023-04-08T08:07:38;102239.88;;;9.26;100.00
58473;BME280;44775;51.564;5.460;2023-04-08T08:10:04;102238.09;;;9.15;100.00
58473;BME280;44775;51.564;5.460;2023-04-08T08:12:30;102241.56;;;9.27;100.00
58473;BME280;44775;51.564;5.460;2023-04-08T08:14:55;102252.56;;;9.45;100.00
58473;BME280;44775;51.564;5.460;2023-04-08T08:17:23;102247.69;;;9.50;100.00
58473;BME280;44775;51.564;5.460;2023-04-08T08:19:49;102262.84;;;9.50;100.00
58473;BME280;44775;51.564;5.460;2023-04-08T08:22:14;102260.47;;;9.35;100.00
58473;BME280;44775;51.564;5.460;2023-04-08T08:24:40;102257.22;;;9.20;100.00
58473;BME280;44775;51.564;5.460;2023-04-08T08:27:05;102250.47;;;9.16;100.00
58473;BME280;44775;51.564;5.460;2023-04-08T08:29:31;102258.25;;;9.08;100.00
58473;BME280;44775;51.564;5.460;2023-04-08T08:31:56;102258.00;;;9.00;100.00
58473;BME280;44775;51.564;5.460;2023-04-08T08:34:22;102251.59;;;8.91;100.00
58473;BME280;44775;51.564;5.460;2023-04-08T08:36:47;102261.16;;;8.94;100.00
58473;BME280;44775;51.564;5.460;2023-04-08T08:39:12;102258.38;;;8.95;100.00
58473;BME280;44775;51.564;5.460;2023-04-08T08:41:38;102266.25;;;9.08;100.00
58473;BME280;44775;51.564;5.460;2023-04-08T08:44:06;102269.41;;;9.02;100.00
58473;BME280;44775;51.564;5.460;2023-04-08T08:46:33;102270.13;;;8.93;100.00
58473;BME280;44775;51.564;5.460;2023-04-08T08:48:58;102275.44;;;9.04;100.00
58473;BME280;44775;51.564;5.460;2023-04-08T08:51:24;102278.47;;;9.11;100.00
58473;BME280;44775;51.564;5.460;2023-04-08T08:53:50;102272.78;;;9.15;100.00
58473;BME280;44775;51.564;5.460;2023-04-08T08:56:16;102272.63;;;9.28;100.00
58473;BME280;44775;51.564;5.460;2023-04-08T08:58:41;102283.25;;;9.39;100.00
58473;BME280;44775;51.564;5.460;2023-04-08T09:01:31;102286.97;;;9.48;100.00
58473;BME280;44775;51.564;5.460;2023-04-08T09:06:30;102283.22;;;9.51;100.00
58473;BME280;44775;51.564;5.460;2023-04-08T09:08:56;102297.25;;;9.64;100.00
58473;BME280;44775;51.564;5.460;2023-04-08T09:11:22;102299.66;;;9.67;100.00
58473;BME280;44775;51.564;5.460;2023-04-08T09:13:47;102301.09;;;9.71;100.00
58473;BME280;44775;51.564;5.460;2023-04-08T09:16:14;102302.81;;;9.72;100.00
58473;BME280;44775;51.564;5.460;2023-04-08T09:18:42;102295.00;;;9.80;100.00
58473;BME280;44775;51.564;5.460;2023-04-08T09:21:09;102304.91;;;9.89;100.00
58473;BME280;44775;51.564;5.460;2023-04-08T09:23:51;102308.28;;;9.91;100.00
58473;BME280;44775;51.564;5.460;2023-04-08T09:26:18;102309.06;;;9.82;100.00
58473;BME280;44775;51.564;5.460;2023-04-08T09:29:04;102305.34;;;9.74;100.00
58473;BME280;44775;51.564;5.460;2023-04-08T09:31:31;102302.47;;;9.65;100.00
58473;BME280;44775;51.564;5.460;2023-04-08T09:33:58;102296.19;;;9.55;100.00
58473;BME280;44775;51.564;5.460;2023-04-08T09:36:25;102306.44;;;9.71;100.00
58473;BME280;44775;51.564;5.460;2023-04-08T09:38:51;102308.41;;;9.69;100.00
58473;BME280;44775;51.564;5.460;2023-04-08T09:41:17;102315.78;;;9.98;100.00
58473;BME280;44775;51.564;5.460;2023-04-08T09:43:49;102313.53;;;9.82;100.00
58473;BME280;44775;51.564;5.460;2023-04-08T09:46:17;102317.88;;;9.94;100.00
58473;BME280;44775;51.564;5.460;2023-04-08T09:48:55;102318.22;;;10.01;100.00
58473;BME280;44775;51.564;5.460;2023-04-08T09:51:22;102318.34;;;9.99;100.00
58473;BME280;44775;51.564;5.460;2023-04-08T09:53:54;102317.38;;;10.00;100.00
58473;BME280;44775;51.564;5.460;2023-04-08T09:56:21;102319.72;;;10.14;100.00
58473;BME280;44775;51.564;5.460;2023-04-08T09:59:02;102323.53;;;10.33;100.00
58473;BME280;44775;51.564;5.460;2023-04-08T10:01:37;102330.75;;;10.42;100.00
58473;BME280;44775;51.564;5.460;2023-04-08T10:04:06;102332.50;;;10.32;100.00
58473;BME280;44775;51.564;5.460;2023-04-08T10:06:32;102332.56;;;10.62;100.00
58473;BME280;44775;51.564;5.460;2023-04-08T10:09:00;102331.66;;;10.31;100.00
58473;BME280;44775;51.564;5.460;2023-04-08T10:11:27;102329.06;;;10.41;100.00
58473;BME280;44775;51.564;5.460;2023-04-08T10:13:52;102328.41;;;10.49;100.00
58473;BME280;44775;51.564;5.460;2023-04-08T10:16:18;102334.97;;;10.66;100.00
58473;BME280;44775;51.564;5.460;2023-04-08T10:18:46;102327.56;;;10.79;100.00
58473;BME280;44775;51.564;5.460;2023-04-08T10:21:37;102325.41;;;11.03;100.00
58473;BME280;44775;51.564;5.460;2023-04-08T10:24:07;102333.16;;;11.06;100.00
58473;BME280;44775;51.564;5.460;2023-04-08T10:31:47;102322.06;;;11.90;100.00
58473;BME280;44775;51.564;5.460;2023-04-08T10:34:21;102326.03;;;11.96;98.97
58473;BME280;44775;51.564;5.460;2023-04-08T10:36:51;102335.34;;;12.01;97.81
58473;BME280;44775;51.564;5.460;2023-04-08T10:39:16;102329.69;;;12.14;97.44
58473;BME280;44775;51.564;5.460;2023-04-08T10:41:43;102322.91;;;12.20;97.31
58473;BME280;44775;51.564;5.460;2023-04-08T10:44:23;102322.31;;;12.45;97.83
58473;BME280;44775;51.564;5.460;2023-04-08T10:46:49;102317.75;;;12.56;93.92
58473;BME280;44775;51.564;5.460;2023-04-08T10:49:16;102312.41;;;12.56;95.78
58473;BME280;44775;51.564;5.460;2023-04-08T10:51:42;102313.81;;;12.50;95.90
58473;BME280;44775;51.564;5.460;2023-04-08T10:54:13;102299.28;;;12.52;98.59
58473;BME280;44775;51.564;5.460;2023-04-08T10:56:49;102299.03;;;13.11;99.07
58473;BME280;44775;51.564;5.460;2023-04-08T10:59:17;102296.50;;;13.37;86.09
58473;BME280;44775;51.564;5.460;2023-04-08T11:01:51;102298.72;;;13.14;86.46
58473;BME280;44775;51.564;5.460;2023-04-08T11:04:17;102304.75;;;13.26;87.48
58473;BME280;44775;51.564;5.460;2023-04-08T11:06:44;102299.81;;;13.49;83.13
58473;BME280;44775;51.564;5.460;2023-04-08T11:09:11;102300.94;;;13.28;83.90
58473;BME280;44775;51.564;5.460;2023-04-08T11:11:36;102299.41;;;13.16;84.91
58473;BME280;44775;51.564;5.460;2023-04-08T11:14:02;102297.41;;;13.45;84.77
58473;BME280;44775;51.564;5.460;2023-04-08T11:16:28;102315.44;;;14.51;77.46
58473;BME280;44775;51.564;5.460;2023-04-08T11:18:54;102313.75;;;15.18;72.88
58473;BME280;44775;51.564;5.460;2023-04-08T11:21:20;102304.84;;;16.01;68.18
58473;BME280;44775;51.564;5.460;2023-04-08T11:23:50;102304.94;;;16.48;66.59
58473;BME280;44775;51.564;5.460;2023-04-08T11:26:17;102308.53;;;16.24;67.89
58473;BME280;44775;51.564;5.460;2023-04-08T11:28:43;102296.97;;;16.71;65.79
58473;BME280;44775;51.564;5.460;2023-04-08T11:31:10;102304.31;;;16.94;63.43
58473;BME280;44775;51.564;5.460;2023-04-08T11:33:36;102305.03;;;17.50;62.52
58473;BME280;44775;51.564;5.460;2023-04-08T11:36:03;102290.47;;;17.59;61.37
58473;BME280;44775;51.564;5.460;2023-04-08T11:38:28;102298.97;;;17.48;60.68
58473;BME280;44775;51.564;5.460;2023-04-08T11:40:55;102307.75;;;17.50;60.55
58473;BME280;44775;51.564;5.460;2023-04-08T11:43:21;102305.50;;;17.85;57.26
58473;BME280;44775;51.564;5.460;2023-04-08T11:45:47;102307.72;;;17.81;57.55
58473;BME280;44775;51.564;5.460;2023-04-08T11:48:14;102305.69;;;17.83;55.21
58473;BME280;44775;51.564;5.460;2023-04-08T11:50:41;102311.97;;;17.99;51.90
58473;BME280;44775;51.564;5.460;2023-04-08T11:53:17;102318.47;;;18.80;53.89
58473;BME280;44775;51.564;5.460;2023-04-08T11:55:46;102308.97;;;19.56;51.39
58473;BME280;44775;51.564;5.460;2023-04-08T11:58:12;102303.56;;;19.20;48.44
58473;BME280;44775;51.564;5.460;2023-04-08T12:00:37;102306.25;;;19.20;50.41
58473;BME280;44775;51.564;5.460;2023-04-08T12:03:03;102306.63;;;19.53;48.70
58473;BME280;44775;51.564;5.460;2023-04-08T12:05:29;102299.25;;;19.84;48.45
58473;BME280;44775;51.564;5.460;2023-04-08T12:07:54;102300.09;;;20.05;47.16
58473;BME280;44775;51.564;5.460;2023-04-08T12:10:19;102303.41;;;20.08;43.89
58473;BME280;44775;51.564;5.460;2023-04-08T12:12:45;102295.16;;;19.94;45.48
58473;BME280;44775;51.564;5.460;2023-04-08T12:15:10;102308.59;;;19.59;46.19
58473;BME280;44775;51.564;5.460;2023-04-08T12:17:36;102288.44;;;19.47;46.59
58473;BME280;44775;51.564;5.460;2023-04-08T12:20:04;102284.63;;;19.78;45.71
58473;BME280;44775;51.564;5.460;2023-04-08T12:22:29;102296.97;;;20.09;44.82
58473;BME280;44775;51.564;5.460;2023-04-08T12:24:54;102287.69;;;19.96;43.54
58473;BME280;44775;51.564;5.460;2023-04-08T12:27:20;102292.72;;;19.99;43.92
58473;BME280;44775;51.564;5.460;2023-04-08T12:29:45;102297.22;;;19.49;41.72
58473;BME280;44775;51.564;5.460;2023-04-08T12:32:11;102291.28;;;19.61;45.10
58473;BME280;44775;51.564;5.460;2023-04-08T12:34:36;102293.88;;;19.90;41.94
58473;BME280;44775;51.564;5.460;2023-04-08T12:37:01;102294.75;;;20.47;40.50
58473;BME280;44775;51.564;5.460;2023-04-08T12:39:27;102289.06;;;21.18;41.07
58473;BME280;44775;51.564;5.460;2023-04-08T12:41:53;102292.03;;;20.82;40.22
58473;BME280;44775;51.564;5.460;2023-04-08T12:44:18;102286.69;;;20.60;41.41
58473;BME280;44775;51.564;5.460;2023-04-08T12:46:43;102291.09;;;20.33;38.45
58473;BME280;44775;51.564;5.460;2023-04-08T12:49:09;102284.06;;;19.89;42.02
58473;BME280;44775;51.564;5.460;2023-04-08T12:51:34;102282.75;;;20.07;42.61
58473;BME280;44775;51.564;5.460;2023-04-08T12:54:01;102281.03;;;20.27;43.28
58473;BME280;44775;51.564;5.460;2023-04-08T12:56:27;102278.53;;;21.02;39.73
58473;BME280;44775;51.564;5.460;2023-04-08T12:58:53;102277.88;;;21.54;40.89
58473;BME280;44775;51.564;5.460;2023-04-08T13:01:19;102275.59;;;21.58;37.00